Time;durP1;ratioP1;P1;durP2;ratioP2;P2;SDS_P1;SDS_P2;PMS_P1;PMS_P2;Temp;Humidity;BMP_temperature;BMP_pressure;BME280_temperature;BME280_humidity;BME280_pressure;Samples;Min_cycle;Max_cycle;Signal;HPM_P1;HPM_P2
2023/09/11 00:01:17;;;;;;;;;;;25.70;74.10;;;;;;10407508;28;20043;-48
2023/09/11 00:06:19;;;;;;;;;;;25.70;74.10;;;;;;10370502;28;19933;-45
2023/09/11 00:11:21;;;;;;;;;;;25.70;74.00;;;;;;10398597;28;20004;-50
2023/09/11 00:16:22;;;;;;;;;;;25.70;75.00;;;;;;10391876;28;19941;-46
2023/09/11 00:21:24;;;;;;;;;;;25.70;74.00;;;;;;10403353;28;20031;-47
2023/09/11 00:26:26;;;;;;;;;;;25.60;73.80;;;;;;10408438;28;19941;-44
2023/09/11 00:31:27;;;;;;;;;;;25.60;73.80;;;;;;10382782;28;19940;-48
2023/09/11 00:36:29;;;;;;;;;;;25.70;73.90;;;;;;10411246;28;19937;-45
2023/09/11 00:41:31;;;;;;;;;;;25.60;73.80;;;;;;10417034;28;19940;-45
2023/09/11 00:46:33;;;;;;;;;;;25.60;73.80;;;;;;10392294;28;19934;-45
2023/09/11 00:51:35;;;;;;;;;;;25.60;73.70;;;;;;10408677;28;20016;-45
2023/09/11 00:56:36;;;;;;;;;;;25.60;73.70;;;;;;10404847;28;19933;-43
2023/09/11 01:01:39;;;;;;;;;;;25.60;73.70;;;;;;10411612;28;19940;-46
2023/09/11 01:06:41;;;;;;;;;;;25.60;73.70;;;;;;10406307;28;19935;-44
2023/09/11 01:11:44;;;;;;;;;;;25.60;73.70;;;;;;10404458;28;20257;-47
2023/09/11 01:16:56;;;;;;;;;;;25.60;73.60;;;;;;10383974;28;19934;-45
2023/09/11 01:21:58;;;;;;;;;;;25.60;73.60;;;;;;10407759;28;19933;-45
2023/09/11 01:27:02;;;;;;;;;;;25.60;73.70;;;;;;10399881;28;19933;-46
2023/09/11 01:32:05;;;;;;;;;;;25.50;73.50;;;;;;10409097;28;20063;-57
2023/09/11 01:37:07;;;;;;;;;;;25.60;73.60;;;;;;10406313;28;20751;-44
2023/09/11 01:42:09;;;;;;;;;;;25.50;73.60;;;;;;10397568;28;19956;-45
2023/09/11 01:47:12;;;;;;;;;;;25.50;73.60;;;;;;10406485;28;19933;-43
2023/09/11 01:52:15;;;;;;;;;;;25.50;73.60;;;;;;10401522;28;20096;-46
2023/09/11 01:57:17;;;;;;;;;;;25.50;73.60;;;;;;10410622;28;19933;-46
2023/09/11 02:02:19;;;;;;;;;;;25.50;73.60;;;;;;10394543;28;20290;-47
2023/09/11 02:07:20;;;;;;;;;;;25.50;73.60;;;;;;10405775;28;19933;-44
2023/09/11 02:12:22;;;;;;;;;;;25.50;73.60;;;;;;10403645;28;20408;-46
2023/09/11 02:17:24;;;;;;;;;;;25.50;73.50;;;;;;10394167;28;19940;-44
2023/09/11 02:22:27;;;;;;;;;;;25.50;73.40;;;;;;10396900;28;19940;-45
2023/09/11 02:27:28;;;;;;;;;;;25.50;73.40;;;;;;10406507;28;19933;-47
2023/09/11 02:32:30;;;;;;;;;;;25.50;73.40;;;;;;10403869;28;19972;-49
2023/09/11 02:37:32;;;;;;;;;;;25.50;73.30;;;;;;10406779;28;19933;-43
2023/09/11 02:42:34;;;;;;;;;;;25.50;73.40;;;;;;10413567;28;19965;-51
2023/09/11 02:47:35;;;;;;;;;;;25.50;73.40;;;;;;10403565;28;19933;-44
2023/09/11 02:52:37;;;;;;;;;;;25.50;73.30;;;;;;10410354;28;19933;-43
2023/09/11 02:57:39;;;;;;;;;;;25.50;73.30;;;;;;10407313;28;19941;-45
2023/09/11 03:02:41;;;;;;;;;;;25.50;73.20;;;;;;10405742;28;19933;-43
2023/09/11 03:07:43;;;;;;;;;;;25.50;73.10;;;;;;10400272;28;20032;-45
2023/09/11 03:12:45;;;;;;;;;;;25.50;73.10;;;;;;10394572;28;19942;-43
2023/09/11 03:17:50;;;;;;;;;;;25.40;73.00;;;;;;10404593;28;19934;-42
2023/09/11 03:22:53;;;;;;;;;;;25.50;73.10;;;;;;10395485;28;19933;-44
2023/09/11 03:27:55;;;;;;;;;;;25.40;72.90;;;;;;10395617;28;20432;-45
2023/09/11 03:32:57;;;;;;;;;;;25.40;72.90;;;;;;10394355;28;19934;-43
2023/09/11 03:37:59;;;;;;;;;;;25.50;73.00;;;;;;10403494;28;20020;-48
2023/09/11 03:43:00;;;;;;;;;;;25.40;72.90;;;;;;10399073;28;19934;-43
2023/09/11 03:48:02;;;;;;;;;;;25.40;72.90;;;;;;10399536;28;20062;-43
2023/09/11 03:53:04;;;;;;;;;;;25.40;72.80;;;;;;10390956;28;19967;-44
2023/09/11 03:58:06;;;;;;;;;;;25.40;72.80;;;;;;10432342;28;19941;-44
2023/09/11 04:03:07;;;;;;;;;;;25.40;73.00;;;;;;10417959;28;20111;-44
2023/09/11 04:08:09;;;;;;;;;;;25.40;72.80;;;;;;10391744;28;19941;-44
2023/09/11 04:13:11;;;;;;;;;;;25.40;72.80;;;;;;10400704;28;19941;-45
2023/09/11 04:18:13;;;;;;;;;;;25.40;72.90;;;;;;10391087;28;19940;-46
2023/09/11 04:23:16;;;;;;;;;;;25.40;72.80;;;;;;10377242;28;20058;-47
2023/09/11 04:28:17;;;;;;;;;;;25.30;72.70;;;;;;10399693;28;20030;-42
2023/09/11 04:33:19;;;;;;;;;;;25.30;72.80;;;;;;10410243;28;20295;-43
2023/09/11 04:38:21;;;;;;;;;;;25.30;72.70;;;;;;10415603;28;20116;-43
2023/09/11 04:43:25;;;;;;;;;;;25.30;72.80;;;;;;10405468;28;20372;-43
2023/09/11 04:48:27;;;;;;;;;;;25.30;72.70;;;;;;10888519;22;19933;-67
2023/09/11 04:53:29;;;;;;;;;;;25.30;72.70;;;;;;10389972;28;19940;-68
2023/09/11 04:58:31;;;;;;;;;;;25.30;72.70;;;;;;10402763;28;19940;-68
2023/09/11 05:03:32;;;;;;;;;;;25.30;72.70;;;;;;10402395;28;20339;-68
2023/09/11 05:08:34;;;;;;;;;;;25.30;72.80;;;;;;10407679;28;19933;-68
2023/09/11 05:13:56;;;;;;;;;;;25.30;72.80;;;;;;10412290;28;20027;-67
2023/09/11 05:18:58;;;;;;;;;;;25.30;72.80;;;;;;10405806;28;19933;-67
2023/09/11 05:23:59;;;;;;;;;;;25.40;72.80;;;;;;10412193;28;19934;-67
2023/09/11 05:29:02;;;;;;;;;;;25.30;72.60;;;;;;10408869;28;19985;-68
2023/09/11 05:34:03;;;;;;;;;;;25.40;72.80;;;;;;10412292;28;19941;-67
2023/09/11 05:39:05;;;;;;;;;;;25.40;72.70;;;;;;10398800;28;19941;-67
2023/09/11 05:44:07;;;;;;;;;;;25.40;72.70;;;;;;10404505;28;20407;-67
2023/09/11 05:49:08;;;;;;;;;;;25.40;72.70;;;;;;10421732;28;19937;-66
2023/09/11 05:54:11;;;;;;;;;;;25.40;72.70;;;;;;10411338;28;19964;-66
2023/09/11 05:59:14;;;;;;;;;;;25.40;72.70;;;;;;10402129;28;19933;-68
2023/09/11 06:04:16;;;;;;;;;;;25.40;72.80;;;;;;10420903;28;19941;-67
2023/09/11 06:09:18;;;;;;;;;;;25.40;72.80;;;;;;10411067;28;20843;-68
2023/09/11 06:14:20;;;;;;;;;;;25.40;72.80;;;;;;10411584;28;19965;-66
2023/09/11 06:19:21;;;;;;;;;;;25.40;72.80;;;;;;10418480;28;19933;-67
2023/09/11 06:24:23;;;;;;;;;;;25.40;72.90;;;;;;10414271;28;19957;-67
2023/09/11 06:29:25;;;;;;;;;;;25.40;72.90;;;;;;10415249;28;19933;-68
2023/09/11 06:34:29;;;;;;;;;;;25.40;72.90;;;;;;10413006;28;19939;-68
2023/09/11 06:39:31;;;;;;;;;;;25.40;73.00;;;;;;10412128;28;19940;-67
2023/09/11 06:44:33;;;;;;;;;;;25.40;73.10;;;;;;10410548;28;19933;-67
2023/09/11 06:49:35;;;;;;;;;;;25.40;73.10;;;;;;10409140;28;20389;-67
2023/09/11 06:54:36;;;;;;;;;;;25.40;73.10;;;;;;10414637;28;19937;-67
2023/09/11 06:59:39;;;;;;;;;;;25.40;73.20;;;;;;10404687;28;20486;-67
2023/09/11 07:04:41;;;;;;;;;;;25.40;73.10;;;;;;10408839;28;19933;-68
2023/09/11 07:09:42;;;;;;;;;;;25.40;73.10;;;;;;10407137;28;20379;-68
2023/09/11 07:14:44;;;;;;;;;;;25.40;73.30;;;;;;10419945;28;19933;-66
2023/09/11 07:19:46;;;;;;;;;;;25.30;73.20;;;;;;10401936;28;20332;-67
2023/09/11 07:24:48;;;;;;;;;;;25.40;73.20;;;;;;10417036;28;19933;-68
2023/09/11 07:29:51;;;;;;;;;;;25.40;73.30;;;;;;10410945;28;19933;-68
2023/09/11 07:34:53;;;;;;;;;;;25.40;73.30;;;;;;10429206;28;20480;-67
2023/09/11 07:39:55;;;;;;;;;;;25.40;73.50;;;;;;10434791;28;19963;-68
2023/09/11 07:44:57;;;;;;;;;;;25.40;73.40;;;;;;10411658;28;19956;-67
2023/09/11 07:49:58;;;;;;;;;;;25.40;73.50;;;;;;10399957;28;19933;-66
2023/09/11 07:55:00;;;;;;;;;;;25.40;73.50;;;;;;10417707;28;19937;-67
2023/09/11 08:00:04;;;;;;;;;;;25.40;72.90;;;;;;10395227;28;20460;-64
2023/09/11 08:05:06;;;;;;;;;;;25.40;70.90;;;;;;10403665;28;19949;-70
2023/09/11 08:10:08;;;;;;;;;;;25.40;71.50;;;;;;10399731;28;19933;-72
2023/09/11 08:15:10;;;;;;;;;;;25.40;70.30;;;;;;10403262;28;20075;-73
2023/09/11 08:20:13;;;;;;;;;;;25.40;70.10;;;;;;10404791;28;19934;-74
2023/09/11 08:25:15;;;;;;;;;;;25.40;70.00;;;;;;10405293;28;20365;-74
2023/09/11 08:30:16;;;;;;;;;;;25.40;69.50;;;;;;10410602;28;20454;-75
2023/09/11 08:35:18;;;;;;;;;;;25.40;70.00;;;;;;10402922;28;19940;-72
2023/09/11 08:40:21;;;;;;;;;;;25.50;70.00;;;;;;10400073;28;20526;-70
2023/09/11 08:45:23;;;;;;;;;;;25.50;70.10;;;;;;10404042;28;19933;-70
2023/09/11 08:50:30;;;;;;;;;;;25.50;69.90;;;;;;10410766;28;19940;-64
2023/09/11 08:55:33;;;;;;;;;;;25.50;69.70;;;;;;10406796;28;19987;-72
2023/09/11 09:00:35;;;;;;;;;;;25.50;69.10;;;;;;10412627;28;19976;-69
2023/09/11 09:05:37;;;;;;;;;;;25.50;69.50;;;;;;10403145;28;20290;-71
2023/09/11 09:10:42;;;;;;;;;;;25.50;69.70;;;;;;10411096;28;20312;-71
2023/09/11 09:15:47;;;;;;;;;;;25.50;69.40;;;;;;10410781;28;20233;-72
2023/09/11 09:20:49;;;;;;;;;;;25.50;69.70;;;;;;10414259;28;20320;-71
2023/09/11 09:26:01;;;;;;;;;;;25.60;69.20;;;;;;10417999;28;20072;-70
2023/09/11 09:31:03;;;;;;;;;;;25.60;68.10;;;;;;10406213;28;19933;-70
2023/09/11 09:36:06;;;;;;;;;;;25.70;67.60;;;;;;10414655;28;19941;-72
2023/09/11 09:41:10;;;;;;;;;;;25.80;67.10;;;;;;10399218;28;19980;-71
2023/09/11 09:46:18;;;;;;;;;;;25.90;66.90;;;;;;10403338;28;20324;-70
2023/09/11 09:51:21;;;;;;;;;;;25.90;67.20;;;;;;10417551;28;19933;-70
2023/09/11 09:56:23;;;;;;;;;;;26.00;67.40;;;;;;10406007;28;20848;-69
2023/09/11 10:01:25;;;;;;;;;;;26.10;68.00;;;;;;10410517;28;20888;-70
2023/09/11 10:06:27;;;;;;;;;;;26.20;68.30;;;;;;10408265;28;20557;-68
2023/09/11 10:11:31;;;;;;;;;;;26.20;68.40;;;;;;10410692;28;20308;-68
2023/09/11 10:16:33;;;;;;;;;;;26.30;68.30;;;;;;10412330;28;20813;-68
2023/09/11 10:21:36;;;;;;;;;;;26.30;68.30;;;;;;10409647;28;19939;-68
2023/09/11 10:26:41;;;;;;;;;;;26.30;68.30;;;;;;10427051;28;20104;-68
2023/09/11 10:31:47;;;;;;;;;;;26.30;68.30;;;;;;10408989;28;19940;-69
2023/09/11 10:36:53;;;;;;;;;;;26.30;68.40;;;;;;10431486;28;19940;-69
2023/09/11 10:41:55;;;;;;;;;;;26.30;68.40;;;;;;10423077;28;20501;-69
2023/09/11 10:47:00;;;;;;;;;;;26.30;68.40;;;;;;10431544;28;20094;-69
2023/09/11 10:52:06;;;;;;;;;;;26.30;68.50;;;;;;10433925;28;20385;-69
2023/09/11 10:57:08;;;;;;;;;;;26.30;68.50;;;;;;10410178;28;19937;-70
2023/09/11 11:02:12;;;;;;;;;;;26.30;68.50;;;;;;10415895;28;25816;-70
2023/09/11 11:07:13;;;;;;;;;;;26.30;68.60;;;;;;10415580;28;20407;-69
2023/09/11 11:12:29;;;;;;;;;;;26.30;68.60;;;;;;10394341;28;19978;-69
2023/09/11 11:17:37;;;;;;;;;;;26.30;68.70;;;;;;10412766;28;19933;-69
2023/09/11 11:22:40;;;;;;;;;;;26.30;68.70;;;;;;10414604;28;20392;-70
2023/09/11 11:27:44;;;;;;;;;;;26.30;68.80;;;;;;10414215;28;19934;-70
2023/09/11 11:32:48;;;;;;;;;;;26.30;68.90;;;;;;10409484;28;19933;-69
2023/09/11 11:37:52;;;;;;;;;;;26.30;69.00;;;;;;10415787;28;19972;-69
2023/09/11 11:42:55;;;;;;;;;;;26.30;69.10;;;;;;10401988;28;19940;-69
2023/09/11 11:47:57;;;;;;;;;;;26.30;69.20;;;;;;10410529;28;19933;-69
2023/09/11 11:52:58;;;;;;;;;;;26.30;69.20;;;;;;10409176;28;19937;-69
2023/09/11 11:58:00;;;;;;;;;;;26.20;69.20;;;;;;10415659;28;19933;-69
2023/09/11 12:03:03;;;;;;;;;;;26.20;69.30;;;;;;10407867;28;20439;-69
2023/09/11 12:08:05;;;;;;;;;;;26.20;69.30;;;;;;10411816;28;19941;-68
2023/09/11 12:13:09;;;;;;;;;;;26.20;69.30;;;;;;10414406;28;20332;-69
2023/09/11 12:18:13;;;;;;;;;;;26.20;69.20;;;;;;10418518;28;19933;-69
2023/09/11 12:23:15;;;;;;;;;;;26.20;69.20;;;;;;10428601;28;19966;-69
2023/09/11 12:28:21;;;;;;;;;;;26.20;69.10;;;;;;10414987;28;19934;-69
2023/09/11 12:33:33;;;;;;;;;;;26.20;69.20;;;;;;10414462;28;20375;-69
2023/09/11 12:38:36;;;;;;;;;;;26.20;69.20;;;;;;10404469;28;19941;-69
2023/09/11 12:43:38;;;;;;;;;;;26.20;69.20;;;;;;10430276;28;20016;-70
2023/09/11 12:48:42;;;;;;;;;;;26.20;69.20;;;;;;10433634;28;19934;-69
2023/09/11 12:53:45;;;;;;;;;;;26.20;69.20;;;;;;10428255;28;20796;-69
2023/09/11 12:58:47;;;;;;;;;;;26.20;69.20;;;;;;10415981;28;19989;-69
2023/09/11 13:03:51;;;;;;;;;;;26.20;69.20;;;;;;10412158;28;20427;-68
2023/09/11 13:08:54;;;;;;;;;;;26.20;69.20;;;;;;10413038;28;20735;-68
2023/09/11 13:13:56;;;;;;;;;;;26.20;69.30;;;;;;10422299;28;19937;-69
2023/09/11 13:19:17;;;;;;;;;;;26.20;69.40;;;;;;10440342;28;20160;-74
2023/09/11 13:24:18;;;;;;;;;;;26.20;69.40;;;;;;10410864;28;19934;-69
2023/09/11 13:29:20;;;;;;;;;;;26.20;69.50;;;;;;10424540;28;19933;-70
2023/09/11 13:34:22;;;;;;;;;;;26.20;69.60;;;;;;10415198;28;19971;-69
2023/09/11 13:39:24;;;;;;;;;;;26.10;69.60;;;;;;10417923;28;19940;-69
2023/09/11 13:44:26;;;;;;;;;;;26.20;70.70;;;;;;10423117;28;19933;-69
2023/09/11 13:49:28;;;;;;;;;;;26.20;69.80;;;;;;10416796;28;19933;-69
2023/09/11 13:54:30;;;;;;;;;;;26.10;69.70;;;;;;10421576;28;20229;-68
2023/09/11 13:59:31;;;;;;;;;;;26.20;69.80;;;;;;10411454;28;19945;-69
2023/09/11 14:04:33;;;;;;;;;;;26.10;69.90;;;;;;10424526;28;20377;-69
2023/09/11 14:09:35;;;;;;;;;;;26.10;69.90;;;;;;10406991;28;19933;-69
2023/09/11 14:14:37;;;;;;;;;;;26.10;70.10;;;;;;10411806;28;20380;-69
2023/09/11 14:19:39;;;;;;;;;;;26.10;70.10;;;;;;10412633;28;19939;-69
2023/09/11 14:24:41;;;;;;;;;;;26.10;70.30;;;;;;10412403;28;19933;-69
2023/09/11 14:29:42;;;;;;;;;;;26.10;70.30;;;;;;10423991;28;20506;-68
2023/09/11 14:34:44;;;;;;;;;;;26.10;70.40;;;;;;10445616;28;19933;-69
2023/09/11 14:39:46;;;;;;;;;;;26.10;70.50;;;;;;10433184;28;19934;-69
2023/09/11 14:44:48;;;;;;;;;;;26.10;70.50;;;;;;10431933;28;19983;-68
2023/09/11 14:49:49;;;;;;;;;;;26.10;70.60;;;;;;10433327;28;20432;-70
2023/09/11 14:54:52;;;;;;;;;;;26.10;70.50;;;;;;10428658;28;19933;-67
2023/09/11 14:59:55;;;;;;;;;;;26.10;70.50;;;;;;10419519;28;20748;-69
2023/09/11 15:04:57;;;;;;;;;;;26.00;70.50;;;;;;10410032;28;20804;-69
2023/09/11 15:09:59;;;;;;;;;;;26.10;70.60;;;;;;10436019;28;19933;-69
2023/09/11 15:15:01;;;;;;;;;;;26.10;70.70;;;;;;10450735;28;19934;-69
2023/09/11 15:20:04;;;;;;;;;;;26.10;70.60;;;;;;10444112;28;20614;-71
2023/09/11 15:25:06;;;;;;;;;;;26.00;70.50;;;;;;10417792;28;19934;-68
2023/09/11 15:30:09;;;;;;;;;;;26.00;70.50;;;;;;10432064;28;20012;-68
2023/09/11 15:35:11;;;;;;;;;;;26.00;70.50;;;;;;10412208;28;20301;-68
2023/09/11 15:40:13;;;;;;;;;;;26.00;70.50;;;;;;10394657;28;19937;-68
2023/09/11 15:45:14;;;;;;;;;;;26.00;70.50;;;;;;10419787;28;20172;-67
2023/09/11 15:50:16;;;;;;;;;;;26.00;70.50;;;;;;10436318;28;19940;-68
2023/09/11 15:55:18;;;;;;;;;;;26.00;70.50;;;;;;10434309;28;20037;-68
2023/09/11 16:00:19;;;;;;;;;;;26.00;70.60;;;;;;10422648;28;19933;-68
2023/09/11 16:05:22;;;;;;;;;;;26.00;70.60;;;;;;10418029;28;20316;-67
2023/09/11 16:10:23;;;;;;;;;;;26.00;70.50;;;;;;10421252;28;20497;-66
2023/09/11 16:15:25;;;;;;;;;;;25.90;70.50;;;;;;10433095;28;19933;-68
2023/09/11 16:20:27;;;;;;;;;;;25.90;70.40;;;;;;10411408;28;20505;-68
2023/09/11 16:25:30;;;;;;;;;;;25.90;70.40;;;;;;10421120;28;19934;-68
2023/09/11 16:30:32;;;;;;;;;;;25.90;70.30;;;;;;10421601;28;19992;-68
2023/09/11 16:35:35;;;;;;;;;;;25.90;70.30;;;;;;10427072;28;19933;-73
2023/09/11 16:40:36;;;;;;;;;;;25.90;70.30;;;;;;10428645;28;20512;-68
2023/09/11 16:45:39;;;;;;;;;;;25.90;70.30;;;;;;10423855;28;19940;-68
2023/09/11 16:50:40;;;;;;;;;;;25.90;70.40;;;;;;10424132;28;19933;-68
2023/09/11 16:55:42;;;;;;;;;;;25.90;70.30;;;;;;10422390;28;20024;-68
2023/09/11 17:00:44;;;;;;;;;;;25.90;70.30;;;;;;10420684;28;19940;-69
2023/09/11 17:05:45;;;;;;;;;;;25.90;70.30;;;;;;10422366;28;21332;-68
2023/09/11 17:10:47;;;;;;;;;;;25.90;70.20;;;;;;10425200;28;19980;-68
2023/09/11 17:15:49;;;;;;;;;;;25.90;70.30;;;;;;10428873;28;19940;-68
2023/09/11 17:20:51;;;;;;;;;;;25.80;70.30;;;;;;10416366;28;19934;-68
2023/09/11 17:25:53;;;;;;;;;;;25.80;70.10;;;;;;10427004;28;19933;-68
2023/09/11 17:30:55;;;;;;;;;;;25.80;70.10;;;;;;10414735;28;20218;-69
2023/09/11 17:35:57;;;;;;;;;;;25.80;70.10;;;;;;10414435;28;19937;-68
2023/09/11 17:40:58;;;;;;;;;;;25.80;69.90;;;;;;10411122;28;19944;-67
2023/09/11 17:46:00;;;;;;;;;;;25.80;69.90;;;;;;10398804;28;20376;-68
2023/09/11 17:51:03;;;;;;;;;;;25.80;69.90;;;;;;10396487;28;19933;-68
2023/09/11 17:56:04;;;;;;;;;;;25.80;69.80;;;;;;10414633;28;19934;-69
2023/09/11 18:01:06;;;;;;;;;;;25.80;69.80;;;;;;10408356;28;19978;-68
2023/09/11 18:06:09;;;;;;;;;;;25.80;69.90;;;;;;10405763;28;20001;-68
2023/09/11 18:11:11;;;;;;;;;;;25.80;69.90;;;;;;10413933;28;19933;-68
2023/09/11 18:16:13;;;;;;;;;;;25.80;69.90;;;;;;10413293;28;19934;-69
2023/09/11 18:21:14;;;;;;;;;;;25.80;69.70;;;;;;10412943;28;20035;-69
2023/09/11 18:26:16;;;;;;;;;;;25.80;69.60;;;;;;10422077;28;20076;-69
2023/09/11 18:31:18;;;;;;;;;;;25.80;69.60;;;;;;10413022;28;19933;-69
2023/09/11 18:36:19;;;;;;;;;;;25.80;69.60;;;;;;10416192;28;20352;-68
2023/09/11 18:41:22;;;;;;;;;;;25.80;69.60;;;;;;10413054;28;20666;-68
2023/09/11 18:46:23;;;;;;;;;;;25.80;69.40;;;;;;10415760;28;19933;-67
2023/09/11 18:51:27;;;;;;;;;;;25.80;69.40;;;;;;10413464;28;19934;-68
2023/09/11 18:56:30;;;;;;;;;;;25.80;69.50;;;;;;10412977;28;19937;-68
2023/09/11 19:01:32;;;;;;;;;;;25.80;69.40;;;;;;10414498;28;19993;-68
2023/09/11 19:06:34;;;;;;;;;;;25.80;69.40;;;;;;10413889;28;19933;-66
2023/09/11 19:11:35;;;;;;;;;;;25.80;69.30;;;;;;10415372;28;19933;-67
2023/09/11 19:16:38;;;;;;;;;;;25.80;69.40;;;;;;10413214;28;19934;-69
2023/09/11 19:21:40;;;;;;;;;;;25.80;69.40;;;;;;10406881;28;19985;-69
2023/09/11 19:26:42;;;;;;;;;;;25.80;69.40;;;;;;10400402;28;19934;-69
2023/09/11 19:31:44;;;;;;;;;;;25.80;69.40;;;;;;10400100;28;20554;-69
2023/09/11 19:36:46;;;;;;;;;;;25.80;69.20;;;;;;10393399;28;20067;-69
2023/09/11 19:41:47;;;;;;;;;;;25.80;69.20;;;;;;10398879;28;19934;-69
2023/09/11 19:46:49;;;;;;;;;;;25.70;69.00;;;;;;10402411;28;19934;-69
2023/09/11 19:51:51;;;;;;;;;;;25.80;69.10;;;;;;10408577;28;19937;-69
2023/09/11 19:56:53;;;;;;;;;;;25.70;69.00;;;;;;10409939;28;19933;-69
2023/09/11 20:01:55;;;;;;;;;;;25.80;69.00;;;;;;10415829;28;20391;-69
2023/09/11 20:06:57;;;;;;;;;;;25.70;69.00;;;;;;10394185;28;20036;-69
2023/09/11 20:11:59;;;;;;;;;;;25.80;68.90;;;;;;10415429;28;20582;-69
2023/09/11 20:17:02;;;;;;;;;;;25.80;68.80;;;;;;10406766;28;20003;-68
2023/09/11 20:22:03;;;;;;;;;;;25.70;68.80;;;;;;10408373;28;20364;-69
2023/09/11 20:27:05;;;;;;;;;;;25.70;68.70;;;;;;10404848;28;19940;-68
2023/09/11 20:32:09;;;;;;;;;;;25.80;68.80;;;;;;10405621;28;19933;-68
2023/09/11 20:37:10;;;;;;;;;;;25.80;68.80;;;;;;10434116;28;20086;-69
2023/09/11 20:42:12;;;;;;;;;;;25.80;68.80;;;;;;10441959;28;19940;-68
2023/09/11 20:47:14;;;;;;;;;;;25.80;69.70;;;;;;10446573;28;20516;-67
2023/09/11 20:52:16;;;;;;;;;;;25.80;68.70;;;;;;10412910;28;19933;-68
2023/09/11 20:57:17;;;;;;;;;;;25.80;68.80;;;;;;10417975;28;19933;-68
2023/09/11 21:02:19;;;;;;;;;;;25.80;68.70;;;;;;10412614;28;20072;-68
2023/09/11 21:07:21;;;;;;;;;;;25.80;68.60;;;;;;10426817;28;20669;-68
2023/09/11 21:12:23;;;;;;;;;;;25.80;68.60;;;;;;10422584;28;19933;-69
2023/09/11 21:17:25;;;;;;;;;;;25.80;68.70;;;;;;10425751;28;19940;-68
2023/09/11 21:22:27;;;;;;;;;;;25.80;68.70;;;;;;10434634;28;19932;-68
2023/09/11 21:27:29;;;;;;;;;;;25.70;68.70;;;;;;10430912;28;19939;-68
2023/09/11 21:32:31;;;;;;;;;;;25.70;68.70;;;;;;10423714;28;20016;-68
2023/09/11 21:37:33;;;;;;;;;;;25.70;68.70;;;;;;10412629;28;20396;-68
2023/09/11 21:42:35;;;;;;;;;;;25.70;68.70;;;;;;10434125;28;19978;-68
2023/09/11 21:47:36;;;;;;;;;;;25.70;68.70;;;;;;10422045;28;19940;-68
2023/09/11 21:52:39;;;;;;;;;;;25.70;68.80;;;;;;10425181;28;20321;-68
2023/09/11 21:57:40;;;;;;;;;;;25.70;68.80;;;;;;10414758;28;19934;-67
2023/09/11 22:02:42;;;;;;;;;;;25.70;68.70;;;;;;10427411;28;19933;-68
2023/09/11 22:07:44;;;;;;;;;;;25.70;68.70;;;;;;10408641;28;20325;-68
2023/09/11 22:12:46;;;;;;;;;;;25.70;68.80;;;;;;10416423;28;19934;-67
2023/09/11 22:17:47;;;;;;;;;;;25.70;68.80;;;;;;10400595;28;19938;-67
2023/09/11 22:22:49;;;;;;;;;;;25.70;69.00;;;;;;10422296;28;19984;-68
2023/09/11 22:27:51;;;;;;;;;;;25.60;68.90;;;;;;10427753;28;19937;-70
2023/09/11 22:32:55;;;;;;;;;;;25.60;68.90;;;;;;10418588;28;19937;-71
2023/09/11 22:37:57;;;;;;;;;;;25.60;69.00;;;;;;10416245;28;20447;-70
2023/09/11 22:42:59;;;;;;;;;;;25.60;69.00;;;;;;10400750;28;20012;-70
2023/09/11 22:48:00;;;;;;;;;;;25.60;69.00;;;;;;10415269;28;20447;-70
2023/09/11 22:53:02;;;;;;;;;;;25.60;69.10;;;;;;10412700;28;19933;-70
2023/09/11 22:58:04;;;;;;;;;;;25.60;69.10;;;;;;10411328;28;20301;-68
2023/09/11 23:03:06;;;;;;;;;;;25.60;69.10;;;;;;10411685;28;19941;-68
2023/09/11 23:08:09;;;;;;;;;;;25.60;69.10;;;;;;10411148;28;19940;-68
2023/09/11 23:13:11;;;;;;;;;;;25.60;69.10;;;;;;10412535;28;19948;-68
2023/09/11 23:18:12;;;;;;;;;;;25.60;69.00;;;;;;10411310;28;19940;-68
2023/09/11 23:23:14;;;;;;;;;;;25.60;69.00;;;;;;10410780;28;19940;-68
2023/09/11 23:28:16;;;;;;;;;;;25.60;70.00;;;;;;10409845;28;19934;-68
2023/09/11 23:33:18;;;;;;;;;;;25.60;69.10;;;;;;10432708;28;19940;-68
2023/09/11 23:38:20;;;;;;;;;;;25.60;69.00;;;;;;10412328;28;20307;-68
2023/09/11 23:43:29;;;;;;;;;;;25.60;69.00;;;;;;10422293;28;19933;-68
2023/09/11 23:48:31;;;;;;;;;;;25.60;69.00;;;;;;10412931;28;19934;-68
2023/09/11 23:53:33;;;;;;;;;;;25.60;69.00;;;;;;10443816;28;20036;-68
2023/09/11 23:58:34;;;;;;;;;;;25.60;70.00;;;;;;10419083;28;19933;-68
